Time;durP1;ratioP1;P1;durP2;ratioP2;P2;SDS_P1;SDS_P2;PMS_P1;PMS_P2;Temp;Humidity;BMP_temperature;BMP_pressure;BME280_temperature;BME280_humidity;BME280_pressure;Samples;Min_cycle;Max_cycle;Signal;HPM_P1;HPM_P2
2023/12/07 00:00:36;;;;;;;21.60;10.80;;;;;;;-0.91;100.00;101560.83;106351;1254;63902;-79
2023/12/07 00:03:03;;;;;;;21.40;12.90;;;;;;;-0.92;100.00;101562.37;106269;1252;71833;-77
2023/12/07 00:05:29;;;;;;;20.00;11.90;;;;;;;-0.99;100.00;101563.39;106013;1254;61194;-76
2023/12/07 00:07:57;;;;;;;23.20;12.40;;;;;;;-1.01;100.00;101560.80;106193;1248;60277;-77
2023/12/07 00:10:24;;;;;;;25.60;14.40;;;;;;;-1.04;100.00;101557.88;106312;1249;73039;-80
2023/12/07 00:12:51;;;;;;;21.30;12.80;;;;;;;-1.05;100.00;101555.98;106290;1251;63655;-80
2023/12/07 00:15:18;;;;;;;25.30;14.10;;;;;;;-1.06;100.00;101560.95;106140;1248;71154;-77
2023/12/07 00:17:45;;;;;;;23.80;12.60;;;;;;;-1.06;100.00;101562.85;105937;1248;61091;-78
2023/12/07 00:20:13;;;;;;;26.80;14.50;;;;;;;-1.06;100.00;101565.60;106199;1248;60193;-78
2023/12/07 00:22:41;;;;;;;24.90;13.40;;;;;;;-1.05;100.00;101559.77;106465;1248;73416;-78
2023/12/07 00:25:08;;;;;;;27.00;14.30;;;;;;;-1.03;100.00;101562.02;106565;1248;62423;-79
2023/12/07 00:27:37;;;;;;;28.00;14.20;;;;;;;-1.02;100.00;101571.27;106252;1254;72646;-77
2023/12/07 00:30:05;;;;;;;22.80;14.60;;;;;;;-1.08;100.00;101575.20;106233;1253;61210;-78
2023/12/07 00:32:32;;;;;;;22.40;13.70;;;;;;;-1.15;100.00;101568.13;106366;1249;60293;-79
2023/12/07 00:34:59;;;;;;;26.80;14.30;;;;;;;-1.19;100.00;101572.07;106195;1249;73883;-79
2023/12/07 00:37:27;;;;;;;24.70;14.10;;;;;;;-1.23;100.00;101575.83;106300;1252;63863;-78
2023/12/07 00:39:54;;;;;;;27.20;14.90;;;;;;;-1.25;100.00;101577.71;106338;1253;72463;-80
2023/12/07 00:42:20;;;;;;;22.10;12.80;;;;;;;-1.25;100.00;101585.24;105988;1252;59928;-79
2023/12/07 00:44:48;;;;;;;23.60;12.40;;;;;;;-1.25;100.00;101590.73;106319;1248;60281;-79
2023/12/07 00:47:16;;;;;;;22.90;14.40;;;;;;;-1.24;100.00;101591.77;106337;1248;73027;-78
2023/12/07 00:49:43;;;;;;;24.90;14.20;;;;;;;-1.23;100.00;101587.48;106298;1249;62479;-79
2023/12/07 00:52:10;;;;;;;28.50;15.80;;;;;;;-1.18;100.00;101593.86;106128;1248;71235;-79
2023/12/07 00:54:37;;;;;;;22.50;12.90;;;;;;;-1.11;100.00;101595.09;106186;1253;61188;-78
2023/12/07 00:57:05;;;;;;;26.40;15.40;;;;;;;-1.08;100.00;101596.48;106158;1253;61261;-78
2023/12/07 00:59:36;;;;;;;24.30;13.80;;;;;;;-1.08;100.00;101594.24;106220;1248;71638;-79
2023/12/07 01:02:04;;;;;;;18.80;11.70;;;;;;;-1.06;100.00;101594.08;106203;1254;63942;-79
2023/12/07 01:04:31;;;;;;;24.70;15.20;;;;;;;-1.09;100.00;101588.23;106141;1254;72672;-79
2023/12/07 01:06:59;;;;;;;23.20;14.20;;;;;;;-1.12;100.00;101594.05;106149;1252;59911;-79
2023/12/07 01:09:27;;;;;;;25.00;14.20;;;;;;;-1.15;100.00;101586.31;106192;1248;60350;-79
2023/12/07 01:11:55;;;;;;;22.50;14.20;;;;;;;-1.21;100.00;101588.71;106248;1248;72976;-78
2023/12/07 01:14:21;;;;;;;30.50;13.80;;;;;;;-1.23;100.00;101584.57;106174;1253;63731;-78
2023/12/07 01:16:48;;;;;;;24.70;14.00;;;;;;;-1.22;100.00;101589.89;106139;1252;72561;-77
2023/12/07 01:19:16;;;;;;;25.10;14.10;;;;;;;-1.23;100.00;101589.71;106148;1248;61095;-78
2023/12/07 01:21:44;;;;;;;21.10;12.80;;;;;;;-1.24;100.00;101592.45;106160;1253;60221;-78
2023/12/07 01:24:11;;;;;;;25.70;13.90;;;;;;;-1.27;100.00;101590.23;106224;1249;72964;-79
2023/12/07 01:26:43;;;;;;;26.10;15.30;;;;;;;-1.26;100.00;101585.08;106209;1253;63948;-77
2023/12/07 01:29:10;;;;;;;27.00;15.60;;;;;;;-1.28;100.00;101585.06;106195;1248;72711;-78
2023/12/07 01:31:37;;;;;;;26.80;15.70;;;;;;;-1.30;100.00;101588.48;106182;1252;59802;-76
2023/12/07 01:34:04;;;;;;;24.50;15.90;;;;;;;-1.31;100.00;101586.09;106229;1253;59535;-79
2023/12/07 01:36:31;;;;;;;30.90;14.00;;;;;;;-1.30;100.00;101583.35;106280;1252;73011;-78
2023/12/07 01:38:58;;;;;;;27.10;16.10;;;;;;;-1.24;100.00;101590.06;106200;1252;62243;-77
2023/12/07 01:41:25;;;;;;;26.00;13.60;;;;;;;-1.20;100.00;101589.91;106118;1249;72501;-80
2023/12/07 01:43:52;;;;;;;26.50;14.80;;;;;;;-1.22;100.00;101584.59;106101;1251;60539;-79
2023/12/07 01:46:19;;;;;;;26.90;15.10;;;;;;;-1.27;100.00;101585.92;106136;1247;60463;-77
2023/12/07 01:48:49;;;;;;;27.30;15.80;;;;;;;-1.34;100.00;101585.05;106071;1248;73834;-77
2023/12/07 01:51:16;;;;;;;26.10;14.90;;;;;;;-1.38;100.00;101584.35;106219;1248;61641;-76
2023/12/07 01:53:44;;;;;;;27.40;13.30;;;;;;;-1.36;100.00;101583.31;106196;1248;72632;-79
2023/12/07 01:56:12;;;;;;;25.50;14.30;;;;;;;-1.36;100.00;101587.44;106080;1251;61288;-78
2023/12/07 01:58:39;;;;;;;19.60;12.40;;;;;;;-1.37;100.00;101588.98;106234;1248;60475;-80
2023/12/07 02:01:06;;;;;;;24.90;13.10;;;;;;;-1.39;100.00;101579.36;106167;1248;72375;-81
2023/12/07 02:03:33;;;;;;;21.70;13.10;;;;;;;-1.40;100.00;101587.25;106067;1254;63878;-79
2023/12/07 02:06:00;;;;;;;29.50;16.10;;;;;;;-1.39;100.00;101589.14;105965;1248;71651;-78
2023/12/07 02:08:27;;;;;;;27.10;15.10;;;;;;;-1.34;100.00;101592.77;105906;1255;60977;-78
2023/12/07 02:10:54;;;;;;;23.50;13.90;;;;;;;-1.31;100.00;101590.02;106148;1254;60478;-78
2023/12/07 02:13:21;;;;;;;21.90;13.40;;;;;;;-1.28;100.00;101592.61;106853;1248;72406;-77
2023/12/07 02:15:48;;;;;;;26.70;15.20;;;;;;;-1.30;100.00;101585.06;109410;1248;62254;-77
2023/12/07 02:18:24;;;;;;;27.00;15.30;;;;;;;-1.28;100.00;101586.44;107575;1253;71149;-79
2023/12/07 02:21:18;;;;;;;27.30;17.50;;;;;;;-1.27;100.00;101584.58;106194;1253;61043;-77
2023/12/07 02:23:45;;;;;;;30.50;17.10;;;;;;;-1.21;100.00;101583.89;106276;1248;60415;-78
2023/12/07 02:26:35;;;;;;;27.40;15.90;;;;;;;-1.16;100.00;101581.52;105932;1247;72406;-78
2023/12/07 02:29:03;;;;;;;30.80;16.20;;;;;;;-1.14;100.00;101582.21;106260;1252;62897;-78
2023/12/07 02:31:30;;;;;;;31.00;15.60;;;;;;;-1.12;100.00;101582.90;106284;1248;72597;-78
2023/12/07 02:33:57;;;;;;;31.50;16.50;;;;;;;-1.10;100.00;101583.77;106030;1255;60968;-79
2023/12/07 02:36:24;;;;;;;28.00;15.70;;;;;;;-1.10;100.00;101582.05;106239;1248;60456;-79
2023/12/07 02:38:52;;;;;;;25.10;15.10;;;;;;;-1.14;100.00;101580.15;106372;1254;71833;-79
2023/12/07 02:41:19;;;;;;;30.10;17.80;;;;;;;-1.18;100.00;101576.18;106102;1257;64009;-78
2023/12/07 02:43:46;;;;;;;29.20;16.00;;;;;;;-1.18;100.00;101574.48;106134;1248;73705;-78
2023/12/07 02:46:13;;;;;;;25.80;16.00;;;;;;;-1.17;100.00;101565.21;106006;1254;62821;-79
2023/12/07 02:48:40;;;;;;;29.00;15.60;;;;;;;-1.15;100.00;101565.05;106137;1248;60516;-77
2023/12/07 02:51:07;;;;;;;23.30;13.50;;;;;;;-1.15;100.00;101569.16;106196;1248;73695;-79
2023/12/07 02:53:34;;;;;;;24.30;14.50;;;;;;;-1.18;100.00;101568.98;106327;1254;63933;-78
2023/12/07 02:56:02;;;;;;;22.90;14.50;;;;;;;-1.21;100.00;101566.74;106318;1249;72499;-78
2023/12/07 02:58:29;;;;;;;28.00;15.30;;;;;;;-1.23;100.00;101568.61;106208;1253;61160;-77
2023/12/07 03:00:56;;;;;;;23.20;14.90;;;;;;;-1.27;100.00;101567.23;106242;1248;60446;-78
2023/12/07 03:03:23;;;;;;;31.10;17.00;;;;;;;-1.24;100.00;101569.30;106207;1253;73796;-77
2023/12/07 03:05:50;;;;;;;22.10;14.90;;;;;;;-1.19;100.00;101576.02;106268;1253;63754;-77
2023/12/07 03:08:17;;;;;;;20.80;12.70;;;;;;;-1.15;100.00;101578.60;106056;1248;72677;-78
2023/12/07 03:10:44;;;;;;;20.40;12.60;;;;;;;-1.16;100.00;101578.25;106226;1252;61142;-79
2023/12/07 03:13:12;;;;;;;24.80;13.90;;;;;;;-1.17;100.00;101575.68;106229;1248;60533;-78
2023/12/07 03:15:39;;;;;;;31.70;15.00;;;;;;;-1.19;100.00;101576.71;106141;1248;73973;-78
2023/12/07 03:18:07;;;;;;;21.40;12.80;;;;;;;-1.17;100.00;101573.11;106253;1253;63823;-78
2023/12/07 03:20:34;;;;;;;23.30;14.70;;;;;;;-1.15;100.00;101571.05;106621;1248;72719;-78
2023/12/07 03:23:01;;;;;;;25.90;16.20;;;;;;;-1.15;100.00;101572.44;106231;1253;60542;-78
2023/12/07 03:25:28;;;;;;;18.40;12.20;;;;;;;-1.16;100.00;101572.59;106154;1248;60404;-78
2023/12/07 03:27:56;;;;;;;25.60;14.20;;;;;;;-1.16;100.00;101575.69;105973;1254;73821;-77
2023/12/07 03:30:23;;;;;;;22.90;13.40;;;;;;;-1.18;100.00;101577.04;106233;1253;63906;-78
2023/12/07 03:32:50;;;;;;;22.80;12.60;;;;;;;-1.19;100.00;101575.67;106200;1248;72621;-77
2023/12/07 03:35:17;;;;;;;21.90;14.20;;;;;;;-1.18;100.00;101581.51;106022;1254;60915;-79
2023/12/07 03:37:44;;;;;;;28.30;14.50;;;;;;;-1.20;100.00;101579.27;106330;1248;60443;-78
2023/12/07 03:40:12;;;;;;;27.00;14.60;;;;;;;-1.22;100.00;101577.21;106186;1249;73815;-77
2023/12/07 03:42:39;;;;;;;23.60;14.90;;;;;;;-1.23;100.00;101573.42;106137;1253;63816;-77
2023/12/07 03:45:23;;;;;;;29.00;16.10;;;;;;;-1.26;100.00;101574.80;106061;1251;71182;-77
2023/12/07 03:47:51;;;;;;;26.10;15.10;;;;;;;-1.27;100.00;101572.89;106191;1253;60939;-77
2023/12/07 03:50:18;;;;;;;24.80;14.50;;;;;;;-1.27;100.00;101573.92;106039;1254;60562;-78
2023/12/07 03:52:45;;;;;;;25.40;14.30;;;;;;;-1.29;100.00;101564.31;106274;1253;73852;-76
2023/12/07 03:58:13;;;;;;;27.90;16.00;;;;;;;-1.21;100.00;101574.27;102601;1294;615557;-79
2023/12/07 04:00:40;;;;;;;30.60;17.60;;;;;;;-1.25;100.00;101572.39;105028;1264;60995;-78
2023/12/07 04:03:07;;;;;;;25.90;15.50;;;;;;;-1.27;100.00;101574.62;105090;1267;59228;-79
2023/12/07 04:05:34;;;;;;;31.00;16.40;;;;;;;-1.25;100.00;101576.34;105181;1264;72199;-76
2023/12/07 04:08:01;;;;;;;26.80;15.70;;;;;;;-1.23;100.00;101573.94;106463;1260;63607;-76
2023/12/07 04:10:28;;;;;;;25.80;14.40;;;;;;;-1.21;100.00;101581.48;105855;1254;213992;-78
2023/12/07 04:12:55;;;;;;;26.10;14.30;;;;;;;-1.23;100.00;101582.52;105904;1257;61128;-79
2023/12/07 04:15:22;;;;;;;30.70;15.90;;;;;;;-1.27;100.00;101580.95;105943;1257;60563;-79
2023/12/07 04:17:50;;;;;;;31.10;15.50;;;;;;;-1.31;100.00;101580.27;106025;1252;70721;-79
2023/12/07 04:20:17;;;;;;;28.70;15.90;;;;;;;-1.29;100.00;101587.98;105989;1256;62684;-78
2023/12/07 04:22:45;;;;;;;25.40;13.50;;;;;;;-1.23;100.00;101587.49;105703;1257;72456;-78
2023/12/07 04:25:12;;;;;;;27.80;15.10;;;;;;;-1.20;100.00;101586.66;105669;1259;60868;-79
2023/12/07 04:27:38;;;;;;;28.10;16.30;;;;;;;-1.19;100.00;101584.77;105751;1257;59647;-79
2023/12/07 04:30:07;;;;;;;28.90;15.20;;;;;;;-1.15;100.00;101586.33;105875;1254;73083;-78
2023/12/07 04:32:34;;;;;;;25.90;14.50;;;;;;;-1.12;100.00;101586.16;105824;1255;62115;-79
2023/12/07 04:35:02;;;;;;;29.20;15.70;;;;;;;-1.15;100.00;101583.23;105805;1257;72447;-78
2023/12/07 04:37:29;;;;;;;24.40;14.00;;;;;;;-1.20;100.00;101592.66;105812;1257;61167;-77
2023/12/07 04:39:56;;;;;;;23.90;13.10;;;;;;;-1.23;100.00;101588.85;105696;1254;60055;-78
2023/12/07 04:42:23;;;;;;;25.30;13.50;;;;;;;-1.28;100.00;101584.73;105868;1254;72957;-78
2023/12/07 04:44:50;;;;;;;26.50;13.40;;;;;;;-1.30;100.00;101587.80;105736;1257;63931;-78
2023/12/07 04:47:17;;;;;;;24.70;14.20;;;;;;;-1.30;100.00;101585.92;105786;1254;71408;-78
2023/12/07 04:49:44;;;;;;;25.30;13.80;;;;;;;-1.30;100.00;101582.84;105775;1254;60970;-75
2023/12/07 04:52:12;;;;;;;27.00;14.80;;;;;;;-1.32;100.00;101581.45;105791;1254;60189;-78
2023/12/07 04:54:40;;;;;;;23.10;13.20;;;;;;;-1.32;100.00;101573.04;105779;1257;72766;-79
2023/12/07 04:57:06;;;;;;;23.40;13.90;;;;;;;-1.32;100.00;101578.54;106096;1254;61594;-79
2023/12/07 04:59:35;;;;;;;21.60;13.10;;;;;;;-1.31;100.00;101578.89;106341;1257;71635;-78
2023/12/07 05:02:04;;;;;;;23.50;14.80;;;;;;;-1.32;100.00;101582.31;105913;1254;60958;-78
2023/12/07 05:04:33;;;;;;;21.90;13.50;;;;;;;-1.35;100.00;101584.17;106143;1254;60020;-77
2023/12/07 05:07:01;;;;;;;21.20;13.80;;;;;;;-1.39;100.00;101579.54;107531;1254;71586;-76
2023/12/07 05:09:30;;;;;;;27.80;13.20;;;;;;;-1.39;100.00;101583.83;108409;1253;64254;-77
2023/12/07 05:11:58;;;;;;;21.90;13.10;;;;;;;-1.36;100.00;101587.60;106131;1257;71341;-76
2023/12/07 05:14:25;;;;;;;22.20;13.70;;;;;;;-1.36;100.00;101584.17;105829;1254;59994;-76
2023/12/07 05:16:55;;;;;;;22.80;12.90;;;;;;;-1.36;100.00;101587.27;105775;1257;60428;-77
2023/12/07 05:19:23;;;;;;;31.20;15.10;;;;;;;-1.37;100.00;101582.63;105777;1254;73112;-78
2023/12/07 05:21:51;;;;;;;25.40;16.50;;;;;;;-1.37;100.00;101583.48;105856;1254;62347;-77
2023/12/07 05:24:18;;;;;;;26.70;13.40;;;;;;;-1.34;100.00;101584.52;105808;1257;71832;-78
2023/12/07 05:26:48;;;;;;;25.00;14.30;;;;;;;-1.31;100.00;101587.12;105760;1257;61288;-78
2023/12/07 05:29:16;;;;;;;24.00;14.40;;;;;;;-1.30;100.00;101586.27;105820;1254;60723;-77
2023/12/07 05:31:43;;;;;;;29.80;15.60;;;;;;;-1.29;100.00;101592.27;105769;1255;73448;-78
2023/12/07 05:34:11;;;;;;;23.40;15.40;;;;;;;-1.26;100.00;101592.62;105763;1254;62492;-77
2023/12/07 05:36:38;;;;;;;23.30;14.00;;;;;;;-1.21;100.00;101595.23;105777;1257;72764;-78
2023/12/07 05:39:07;;;;;;;26.90;15.10;;;;;;;-1.18;100.00;101596.27;105683;1254;59641;-78
2023/12/07 05:41:34;;;;;;;25.40;14.40;;;;;;;-1.16;100.00;101600.38;105763;1255;59618;-77
2023/12/07 05:44:03;;;;;;;26.90;16.10;;;;;;;-1.15;100.00;101600.23;105846;1254;73081;-78
2023/12/07 05:46:32;;;;;;;26.80;14.40;;;;;;;-1.13;100.00;101602.46;106393;1257;63910;-78
2023/12/07 05:48:59;;;;;;;26.10;15.00;;;;;;;-1.09;100.00;101608.65;105848;1254;72311;-77
2023/12/07 05:51:27;;;;;;;27.40;14.80;;;;;;;-1.06;100.00;101612.96;105733;1257;60990;-77
2023/12/07 05:53:54;;;;;;;31.30;16.60;;;;;;;-1.08;100.00;101607.98;105752;1254;60124;-78
2023/12/07 05:56:21;;;;;;;27.10;15.70;;;;;;;-1.09;100.00;101607.96;105925;1254;73122;-77
2023/12/07 05:58:48;;;;;;;32.00;16.30;;;;;;;-1.09;100.00;101602.81;105982;1253;63881;-78
2023/12/07 06:01:18;;;;;;;24.00;14.30;;;;;;;-1.07;100.00;101608.33;105788;1253;71468;-79
2023/12/07 06:03:45;;;;;;;27.00;15.40;;;;;;;-1.07;100.00;101600.77;105877;1254;61192;-79
2023/12/07 06:06:12;;;;;;;28.80;15.40;;;;;;;-1.05;100.00;101600.77;105775;1257;59632;-78
2023/12/07 06:08:40;;;;;;;29.00;15.40;;;;;;;-1.02;100.00;101599.92;105787;1255;73030;-77
2023/12/07 06:11:07;;;;;;;29.10;16.90;;;;;;;-0.98;100.00;101601.14;105845;1257;63709;-79
2023/12/07 06:13:34;;;;;;;27.50;14.50;;;;;;;-0.95;100.00;101597.72;105965;1257;72647;-80
2023/12/07 06:16:02;;;;;;;24.10;14.40;;;;;;;-0.93;100.00;101597.21;105727;1257;61037;-78
2023/12/07 06:18:30;;;;;;;20.20;13.30;;;;;;;-0.96;100.00;101588.11;105807;1254;60408;-78
2023/12/07 06:20:57;;;;;;;25.70;15.00;;;;;;;-0.98;100.00;101590.52;106222;1254;71642;-76
2023/12/07 06:23:25;;;;;;;21.70;13.60;;;;;;;-1.01;100.00;101588.61;105947;1257;62877;-77
2023/12/07 06:25:52;;;;;;;24.70;15.00;;;;;;;-1.00;100.00;101588.10;105835;1257;71221;-80
2023/12/07 06:28:18;;;;;;;22.00;14.60;;;;;;;-0.99;100.00;101591.02;105593;1257;60982;-78
2023/12/07 06:30:46;;;;;;;25.20;14.00;;;;;;;-0.97;100.00;101595.31;105871;1254;60140;-80
2023/12/07 06:33:14;;;;;;;21.10;14.70;;;;;;;-0.97;100.00;101600.13;105859;1254;73019;-79
2023/12/07 06:35:46;;;;;;;23.40;14.40;;;;;;;-0.96;100.00;101592.39;105806;1257;62265;-80
2023/12/07 06:38:13;;;;;;;21.90;13.70;;;;;;;-0.93;100.00;101594.65;106018;1257;72410;-80
2023/12/07 06:40:41;;;;;;;25.00;13.20;;;;;;;-0.92;100.00;101598.08;106012;1258;61234;-77
2023/12/07 06:43:08;;;;;;;26.60;13.50;;;;;;;-0.94;100.00;101592.06;105721;1257;61135;-78
2023/12/07 06:45:35;;;;;;;22.40;12.60;;;;;;;-0.96;100.00;101596.69;105729;1254;73063;-79
2023/12/07 06:48:02;;;;;;;26.20;15.30;;;;;;;-0.95;100.00;101598.23;105862;1257;63630;-77
2023/12/07 06:50:29;;;;;;;27.00;16.50;;;;;;;-0.96;100.00;101597.71;106163;1254;72603;-79
2023/12/07 06:52:56;;;;;;;27.00;15.70;;;;;;;-0.94;100.00;101606.48;105749;1254;59863;-79
2023/12/07 06:55:24;;;;;;;23.80;14.00;;;;;;;-0.89;100.00;101607.01;105828;1258;59641;-78
2023/12/07 06:57:51;;;;;;;25.50;14.70;;;;;;;-0.87;100.00;101599.65;105690;1254;72745;-78
2023/12/07 07:00:19;;;;;;;20.10;14.60;;;;;;;-0.87;100.00;101598.95;105806;1257;62959;-78
2023/12/07 07:02:47;;;;;;;22.60;14.50;;;;;;;-0.83;100.00;101602.23;105748;1257;72666;-81
2023/12/07 07:05:14;;;;;;;21.00;13.50;;;;;;;-0.81;100.00;101604.13;105724;1253;60904;-79
2023/12/07 07:07:41;;;;;;;23.20;14.30;;;;;;;-0.83;100.00;101593.98;105889;1253;60283;-76
2023/12/07 07:10:11;;;;;;;22.60;12.90;;;;;;;-0.83;100.00;101602.05;105835;1254;72737;-80
2023/12/07 07:12:38;;;;;;;20.70;12.20;;;;;;;-0.87;100.00;101592.60;105823;1258;63860;-78
2023/12/07 07:15:08;;;;;;;26.70;15.90;;;;;;;-0.90;100.00;101596.02;105932;1256;70130;-75
2023/12/07 07:17:35;;;;;;;21.70;13.50;;;;;;;-0.92;100.00;101596.52;105942;1251;61247;-76
2023/12/07 07:20:05;;;;;;;27.30;15.00;;;;;;;-0.95;100.00;101598.93;106109;1251;60561;-77
2023/12/07 07:22:34;;;;;;;26.30;14.80;;;;;;;-0.98;100.00;101601.48;105936;1251;71931;-77
2023/12/07 07:25:07;;;;;;;26.30;16.50;;;;;;;-0.98;100.00;101604.40;105942;1251;62505;-79
2023/12/07 07:27:35;;;;;;;25.80;14.30;;;;;;;-0.98;100.00;101599.77;105852;1251;72639;-79
2023/12/07 07:30:04;;;;;;;21.70;13.80;;;;;;;-0.97;100.00;101601.83;105875;1255;61175;-79
2023/12/07 07:32:32;;;;;;;28.90;15.60;;;;;;;-0.92;100.00;101608.89;106022;1250;60127;-78
2023/12/07 07:34:59;;;;;;;29.60;16.50;;;;;;;-0.85;100.00;101613.72;105967;1251;71850;-80
2023/12/07 07:37:26;;;;;;;28.80;16.30;;;;;;;-0.77;100.00;101615.46;106031;1256;63814;-79
2023/12/07 07:39:53;;;;;;;27.40;14.50;;;;;;;-0.70;100.00;101617.36;105828;1251;71250;-80
2023/12/07 07:42:20;;;;;;;24.50;15.80;;;;;;;-0.62;100.00;101621.34;106062;1251;59694;-78
2023/12/07 07:44:47;;;;;;;26.20;14.90;;;;;;;-0.56;100.00;101621.85;105990;1256;59628;-79
2023/12/07 07:47:14;;;;;;;32.40;16.00;;;;;;;-0.51;100.00;101621.88;106679;1251;72751;-76
2023/12/07 07:49:41;;;;;;;26.10;15.10;;;;;;;-0.51;100.00;101623.92;106916;1251;62424;-77
2023/12/07 07:52:08;;;;;;;21.80;15.00;;;;;;;-0.54;100.00;101630.63;106785;1254;72389;-78
2023/12/07 07:54:36;;;;;;;28.10;15.40;;;;;;;-0.57;100.00;101622.89;106194;1251;61171;-79
2023/12/07 07:57:04;;;;;;;23.00;14.20;;;;;;;-0.55;100.00;101619.80;106079;1252;60081;-78
2023/12/07 07:59:31;;;;;;;19.90;13.60;;;;;;;-0.49;100.00;101621.36;105889;1251;72980;-80
2023/12/07 08:01:58;;;;;;;20.30;13.80;;;;;;;-0.45;100.00;101620.16;105919;1255;61422;-80
2023/12/07 08:04:25;;;;;;;27.40;15.70;;;;;;;-0.42;100.00;101626.00;106003;1254;70252;-78
2023/12/07 08:06:52;;;;;;;27.90;14.30;;;;;;;-0.42;100.00;101634.43;105866;1251;60450;-76
2023/12/07 08:09:20;;;;;;;21.10;14.90;;;;;;;-0.46;100.00;101632.36;105941;1251;60565;-80
2023/12/07 08:11:47;;;;;;;27.60;15.80;;;;;;;-0.45;100.00;101633.56;105842;1251;73891;-78
2023/12/07 08:14:15;;;;;;;24.40;14.00;;;;;;;-0.44;100.00;101633.21;106179;1253;63818;-79
2023/12/07 08:16:46;;;;;;;22.80;13.30;;;;;;;-0.46;100.00;101635.63;105890;1251;72493;-79
2023/12/07 08:19:15;;;;;;;23.30;13.60;;;;;;;-0.48;100.00;101632.70;105913;1251;60632;-79
2023/12/07 08:21:41;;;;;;;24.30;15.30;;;;;;;-0.47;100.00;101631.48;105974;1251;60453;-77
2023/12/07 08:24:09;;;;;;;18.20;12.40;;;;;;;-0.46;100.00;101634.42;105863;1256;75067;-78
2023/12/07 08:26:36;;;;;;;19.60;12.50;;;;;;;-0.49;100.00;101629.61;105987;1256;63670;-78
2023/12/07 08:29:02;;;;;;;22.70;13.90;;;;;;;-0.51;100.00;101632.86;106003;1251;71932;-78
2023/12/07 08:31:30;;;;;;;18.60;13.40;;;;;;;-0.51;100.00;101629.59;105913;1256;61180;-79
2023/12/07 08:33:56;;;;;;;20.70;14.50;;;;;;;-0.50;100.00;101632.88;105963;1251;60536;-79
2023/12/07 08:36:24;;;;;;;19.90;15.40;;;;;;;-0.50;100.00;101619.29;105822;1251;75267;-79
2023/12/07 08:38:51;;;;;;;20.70;13.80;;;;;;;-0.51;100.00;101612.42;105981;1256;63518;-78
2023/12/07 08:41:18;;;;;;;22.90;15.10;;;;;;;-0.48;100.00;101606.93;105983;1251;73971;-78
2023/12/07 08:43:46;;;;;;;23.30;13.70;;;;;;;-0.44;100.00;101602.81;105904;1251;60443;-78
2023/12/07 08:46:12;;;;;;;20.60;13.80;;;;;;;-0.42;100.00;101602.13;106001;1251;60879;-78
2023/12/07 08:48:39;;;;;;;22.80;12.80;;;;;;;-0.39;100.00;101603.67;105947;1255;73722;-79
2023/12/07 08:51:10;;;;;;;20.10;13.60;;;;;;;-0.39;100.00;101601.27;105967;1256;63602;-80
2023/12/07 08:53:41;;;;;;;22.20;14.00;;;;;;;-0.44;100.00;101598.17;105881;1251;72641;-79
2023/12/07 08:56:08;;;;;;;18.90;13.10;;;;;;;-0.45;100.00;101600.05;105953;1257;61050;-79
2023/12/07 08:58:35;;;;;;;27.50;14.50;;;;;;;-0.45;100.00;101599.71;105982;1251;60546;-77
2023/12/07 09:01:02;;;;;;;20.60;14.20;;;;;;;-0.46;100.00;101598.70;106034;1251;73705;-78
2023/12/07 09:03:31;;;;;;;22.80;15.50;;;;;;;-0.48;100.00;101601.45;105895;1256;63899;-78
2023/12/07 09:05:59;;;;;;;22.80;15.30;;;;;;;-0.49;100.00;101594.23;105989;1257;72701;-78
2023/12/07 09:08:28;;;;;;;20.90;14.30;;;;;;;-0.45;100.00;101595.09;106004;1251;60968;-78
2023/12/07 09:10:56;;;;;;;19.10;13.50;;;;;;;-0.44;100.00;101599.21;105940;1251;60421;-78
2023/12/07 09:13:23;;;;;;;25.00;15.40;;;;;;;-0.44;100.00;101594.40;105892;1254;74387;-78
2023/12/07 09:15:50;;;;;;;26.20;14.80;;;;;;;-0.44;100.00;101594.58;105901;1257;63939;-79
2023/12/07 09:18:18;;;;;;;22.10;15.00;;;;;;;-0.43;100.00;101591.83;106015;1255;71755;-78
2023/12/07 09:20:45;;;;;;;28.20;15.90;;;;;;;-0.44;100.00;101586.84;105902;1256;61058;-79
2023/12/07 09:23:13;;;;;;;22.00;15.10;;;;;;;-0.43;100.00;101592.68;105857;1255;60524;-79
2023/12/07 09:25:40;;;;;;;22.40;15.30;;;;;;;-0.42;100.00;101593.03;105859;1256;73810;-80
2023/12/07 09:28:07;;;;;;;25.60;14.60;;;;;;;-0.41;100.00;101589.77;105958;1254;65223;-78
2023/12/07 09:30:35;;;;;;;21.80;15.00;;;;;;;-0.38;100.00;101586.67;105931;1251;72526;-78
2023/12/07 09:33:03;;;;;;;21.10;14.90;;;;;;;-0.34;100.00;101584.11;105930;1256;60427;-79
2023/12/07 09:35:30;;;;;;;27.60;15.00;;;;;;;-0.30;100.00;101588.58;105943;1255;61221;-80
2023/12/07 09:37:57;;;;;;;23.60;14.30;;;;;;;-0.28;100.00;101589.09;106004;1251;73934;-79
2023/12/07 09:40:25;;;;;;;21.70;15.20;;;;;;;-0.26;100.00;101587.02;105998;1255;63707;-79
2023/12/07 09:42:52;;;;;;;27.50;15.90;;;;;;;-0.27;100.00;101580.48;105876;1251;73628;-78
2023/12/07 09:45:19;;;;;;;22.20;16.00;;;;;;;-0.23;100.00;101580.50;105695;1256;60927;-79
2023/12/07 09:47:49;;;;;;;21.40;14.90;;;;;;;-0.19;100.00;101582.05;105822;1251;60559;-80
2023/12/07 09:50:27;;;;;;;23.10;14.60;;;;;;;-0.19;100.00;101579.13;105986;1251;75320;-79
2023/12/07 09:52:56;;;;;;;21.40;15.00;;;;;;;-0.22;100.00;101583.09;105953;1251;63165;-80
2023/12/07 09:55:35;;;;;;;20.90;15.90;;;;;;;-0.21;100.00;101574.48;106019;1251;70684;-79
2023/12/07 09:58:04;;;;;;;24.10;14.70;;;;;;;-0.18;100.00;101575.69;105947;1253;62401;-80
2023/12/07 10:00:33;;;;;;;25.30;15.70;;;;;;;-0.16;100.00;101576.55;105940;1251;60404;-80
2023/12/07 10:03:00;;;;;;;27.80;16.70;;;;;;;-0.12;100.00;101575.86;105897;1251;72518;-78
2023/12/07 10:05:27;;;;;;;22.70;14.20;;;;;;;-0.06;100.00;101577.57;105878;1255;63738;-79
2023/12/07 10:07:54;;;;;;;25.30;16.60;;;;;;;-0.04;100.00;101569.66;105993;1251;71005;-77
2023/12/07 10:10:21;;;;;;;20.50;14.30;;;;;;;-0.01;100.00;101567.43;106132;1256;61177;-79
2023/12/07 10:12:55;;;;;;;20.70;14.80;;;;;;;0.00;100.00;101558.15;106250;1251;60465;-79
2023/12/07 10:15:23;;;;;;;23.30;15.00;;;;;;;0.00;100.00;101552.48;106135;1251;75010;-79
2023/12/07 10:17:54;;;;;;;24.80;17.00;;;;;;;0.05;100.00;101554.02;106002;1251;62372;-80
2023/12/07 10:20:25;;;;;;;23.20;15.40;;;;;;;0.06;100.00;101554.17;106046;1254;72632;-78
2023/12/07 10:23:09;;;;;;;22.10;15.70;;;;;;;0.02;100.00;101549.55;106133;1251;60542;-77
2023/12/07 10:25:40;;;;;;;32.70;18.00;;;;;;;-0.04;100.00;101550.59;106084;1254;60389;-79
2023/12/07 10:28:14;;;;;;;20.30;14.50;;;;;;;-0.07;100.00;101548.02;105992;1251;73855;-79
2023/12/07 10:30:41;;;;;;;22.90;15.30;;;;;;;-0.08;100.00;101544.39;106077;1251;63027;-80
2023/12/07 10:33:12;;;;;;;27.50;17.10;;;;;;;-0.07;100.00;101542.35;105855;1254;72603;-79
2023/12/07 10:35:40;;;;;;;23.90;16.30;;;;;;;-0.04;100.00;101545.25;105916;1254;60896;-79
2023/12/07 10:38:09;;;;;;;20.60;15.80;;;;;;;-0.02;100.00;101542.33;105932;1254;60424;-78
2023/12/07 10:40:36;;;;;;;25.50;17.30;;;;;;;-0.03;100.00;101536.31;105864;1251;73673;-81
2023/12/07 10:43:05;;;;;;;22.30;15.50;;;;;;;-0.03;100.00;101540.79;106017;1254;63600;-80
2023/12/07 10:45:33;;;;;;;20.80;15.20;;;;;;;0.01;100.00;101540.27;106057;1254;73636;-79
2023/12/07 10:48:06;;;;;;;24.40;14.50;;;;;;;0.04;100.00;101541.98;105988;1251;60501;-79
2023/12/07 10:50:35;;;;;;;25.70;16.70;;;;;;;0.04;100.00;101540.25;105941;1255;60306;-78
2023/12/07 10:53:30;;;;;;;26.10;16.40;;;;;;;0.04;100.00;101542.14;105906;1251;74142;-79
2023/12/07 10:56:00;;;;;;;22.10;15.40;;;;;;;0.05;100.00;101547.13;105878;1250;64514;-79
2023/12/07 10:58:27;;;;;;;19.80;14.70;;;;;;;0.06;100.00;101549.70;105905;1255;72915;-78
2023/12/07 11:00:54;;;;;;;22.20;16.90;;;;;;;0.02;100.00;101550.06;105919;1251;61162;-76